createdAt,value
2018-07-26T00:00:06.608Z,22.45
2018-07-26T00:02:33.650Z,20.73
2018-07-26T00:05:00.698Z,22.35
2018-07-26T00:07:27.754Z,21.62
2018-07-26T00:09:54.798Z,20.92
2018-07-26T00:12:21.846Z,21.83
2018-07-26T00:14:48.903Z,21.77
2018-07-26T00:17:15.941Z,21.42
2018-07-26T00:19:42.991Z,22.02
2018-07-26T00:22:10.048Z,19.90
2018-07-26T00:24:37.088Z,23.48
2018-07-26T00:27:04.137Z,21.67
2018-07-26T00:29:31.191Z,19.17
2018-07-26T00:31:58.236Z,21.25
2018-07-26T00:34:25.206Z,19.15
2018-07-26T00:36:56.838Z,20.60
2018-07-26T00:39:23.889Z,19.80
2018-07-26T00:41:51.554Z,21.85
2018-07-26T00:44:18.597Z,21.02
2018-07-26T00:46:45.650Z,19.65
2018-07-26T00:49:12.703Z,21.55
2018-07-26T00:51:39.743Z,21.55
2018-07-26T00:54:06.791Z,21.23
2018-07-26T00:56:33.848Z,20.25
2018-07-26T00:59:00.895Z,20.65
2018-07-26T01:01:27.938Z,20.88
2018-07-26T01:03:55.914Z,20.30
2018-07-26T01:06:22.956Z,21.25
2018-07-26T01:08:49.953Z,19.15
2018-07-26T01:11:16.951Z,20.33
2018-07-26T01:13:45.023Z,20.37
2018-07-26T01:16:12.070Z,20.62
2018-07-26T01:18:39.125Z,20.25
2018-07-26T01:21:06.169Z,20.65
2018-07-26T01:23:33.428Z,20.42
2018-07-26T01:26:00.473Z,24.35
2018-07-26T01:28:27.519Z,18.55
2018-07-26T01:30:56.206Z,19.52
2018-07-26T01:33:23.260Z,20.27
2018-07-26T01:35:50.201Z,18.80
2018-07-26T01:38:17.254Z,18.92
2018-07-26T01:40:44.299Z,19.02
2018-07-26T01:43:13.292Z,18.08
2018-07-26T01:45:40.342Z,18.02
2018-07-26T01:48:07.398Z,18.70
2018-07-26T01:50:34.439Z,18.25
2018-07-26T01:53:01.445Z,16.73
2018-07-26T01:55:28.434Z,18.33
2018-07-26T01:57:55.385Z,18.45
2018-07-26T02:00:22.427Z,15.70
2018-07-26T02:02:49.428Z,15.15
2018-07-26T02:05:23.291Z,17.15
2018-07-26T02:07:50.283Z,16.85
2018-07-26T02:10:17.382Z,15.98
2018-07-26T02:12:46.284Z,17.42
2018-07-26T02:15:13.322Z,16.40
2018-07-26T02:17:40.371Z,16.52
2018-07-26T02:20:08.287Z,16.37
2018-07-26T02:22:46.715Z,15.98
2018-07-26T02:27:54.991Z,16.20
2018-07-26T02:30:25.465Z,16.12
2018-07-26T02:32:52.462Z,16.30
2018-07-26T02:35:19.515Z,17.75
2018-07-26T02:37:46.558Z,17.52
2018-07-26T02:40:13.606Z,16.25
2018-07-26T02:42:40.661Z,19.00
2018-07-26T02:45:07.705Z,16.20
2018-07-26T02:47:34.753Z,16.75
2018-07-26T02:50:01.703Z,15.07
2018-07-26T02:52:28.850Z,15.45
2018-07-26T02:54:56.821Z,14.73
2018-07-26T02:57:23.875Z,14.63
2018-07-26T02:59:50.917Z,16.37
2018-07-26T03:02:17.966Z,18.42
2018-07-26T03:04:45.022Z,16.00
2018-07-26T03:07:13.835Z,16.20
2018-07-26T03:09:41.412Z,15.68
2018-07-26T03:12:08.415Z,16.42
2018-07-26T03:14:35.468Z,16.42
2018-07-26T03:17:02.513Z,15.65
2018-07-26T03:19:29.559Z,16.27
2018-07-26T03:21:56.617Z,15.70
2018-07-26T03:24:23.656Z,16.50
2018-07-26T03:26:50.607Z,15.52
2018-07-26T03:29:17.652Z,16.80
2018-07-26T03:31:45.113Z,16.70
2018-07-26T03:34:12.163Z,16.87
2018-07-26T03:36:39.214Z,16.95
2018-07-26T03:39:06.252Z,16.25
2018-07-26T03:41:33.311Z,16.75
2018-07-26T03:44:00.460Z,16.90
2018-07-26T03:46:27.512Z,16.67
2018-07-26T03:48:56.134Z,16.37
2018-07-26T03:51:23.190Z,16.05
2018-07-26T03:53:50.196Z,14.60
2018-07-26T03:56:17.235Z,15.38
2018-07-26T03:58:44.286Z,15.38
2018-07-26T04:01:11.337Z,19.23
2018-07-26T04:03:38.380Z,15.25
2018-07-26T04:06:05.331Z,16.25
2018-07-26T04:08:32.375Z,14.55
2018-07-26T04:10:59.425Z,15.15
2018-07-26T04:13:26.785Z,14.60
2018-07-26T04:15:53.832Z,17.90
2018-07-26T04:18:20.875Z,19.75
2018-07-26T04:20:47.932Z,20.52
2018-07-26T04:23:14.973Z,17.50
2018-07-26T04:25:41.929Z,15.77
2018-07-26T04:28:08.969Z,16.70
2018-07-26T04:30:36.018Z,15.05
2018-07-26T04:33:03.071Z,15.75
2018-07-26T04:35:31.653Z,20.27
2018-07-26T04:37:59.417Z,14.90
2018-07-26T04:40:26.465Z,16.40
2018-07-26T04:42:54.787Z,15.15
2018-07-26T04:45:22.515Z,14.77
2018-07-26T04:47:49.556Z,15.20
2018-07-26T04:50:17.527Z,14.55
2018-07-26T04:52:45.861Z,14.40
2018-07-26T04:55:14.395Z,13.57
2018-07-26T04:57:42.360Z,19.67
2018-07-26T05:00:15.453Z,12.68
2018-07-26T05:02:46.492Z,14.68
2018-07-26T05:05:13.854Z,15.02
2018-07-26T05:07:40.897Z,13.00
2018-07-26T05:10:07.944Z,12.63
2018-07-26T05:12:35.307Z,12.98
2018-07-26T05:15:02.349Z,12.10
2018-07-26T05:17:29.397Z,13.00
2018-07-26T05:19:56.758Z,17.12
2018-07-26T05:22:23.803Z,11.75
2018-07-26T05:24:50.852Z,12.35
2018-07-26T05:27:17.904Z,13.75
2018-07-26T05:29:44.892Z,11.90
2018-07-26T05:32:11.998Z,13.32
2018-07-26T05:34:40.173Z,12.75
2018-07-26T05:37:07.222Z,11.63
2018-07-26T05:39:34.274Z,10.88
2018-07-26T05:42:01.318Z,11.80
2018-07-26T05:44:28.366Z,11.48
2018-07-26T05:46:55.420Z,11.60
2018-07-26T05:49:22.469Z,12.63
2018-07-26T05:51:49.511Z,11.93
2018-07-26T05:54:16.565Z,11.12
2018-07-26T05:56:43.610Z,10.55
2018-07-26T06:01:52.043Z,8.40
2018-07-26T06:04:19.092Z,7.60
2018-07-26T06:06:48.341Z,7.85
2018-07-26T06:09:16.464Z,9.90
2018-07-26T06:11:43.520Z,8.57
2018-07-26T06:14:10.508Z,8.18
2018-07-26T06:16:37.515Z,10.57
2018-07-26T06:19:04.763Z,7.75
2018-07-26T06:21:31.823Z,8.35
2018-07-26T06:23:58.862Z,8.77
2018-07-26T06:26:25.913Z,8.10
2018-07-26T06:28:52.963Z,7.82
2018-07-26T06:31:20.011Z,8.38
2018-07-26T06:33:46.997Z,8.45
2018-07-26T06:36:14.003Z,7.97
2018-07-26T06:38:41.054Z,9.43
2018-07-26T06:41:08.303Z,9.80
2018-07-26T06:43:35.869Z,10.70
2018-07-26T06:46:02.912Z,8.38
2018-07-26T06:48:29.960Z,10.68
2018-07-26T06:50:57.112Z,9.27
2018-07-26T06:53:24.673Z,10.10
2018-07-26T06:55:51.720Z,12.68
2018-07-26T06:58:18.775Z,10.30
2018-07-26T07:00:45.720Z,9.23
2018-07-26T07:03:12.662Z,10.52
2018-07-26T07:05:39.712Z,13.27
2018-07-26T07:08:06.862Z,10.25
2018-07-26T07:10:33.916Z,9.85
2018-07-26T07:13:01.266Z,13.45
2018-07-26T07:15:28.315Z,12.23
2018-07-26T07:17:55.676Z,10.07
2018-07-26T07:20:22.746Z,9.95
2018-07-26T07:22:49.770Z,8.73
2018-07-26T07:25:16.822Z,10.27
2018-07-26T07:27:43.931Z,12.70
2018-07-26T07:30:10.913Z,14.48
2018-07-26T07:32:37.966Z,12.45
2018-07-26T07:35:05.011Z,10.20
2018-07-26T07:37:32.059Z,11.85
2018-07-26T07:39:59.057Z,10.10
2018-07-26T07:42:26.053Z,11.12
2018-07-26T07:44:53.002Z,9.60
2018-07-26T07:47:20.126Z,9.73
2018-07-26T07:49:47.101Z,11.30
2018-07-26T07:52:14.146Z,8.73
2018-07-26T07:54:41.195Z,9.05
2018-07-26T07:57:08.396Z,12.37
2018-07-26T07:59:35.557Z,9.23
2018-07-26T08:02:02.647Z,10.00
2018-07-26T08:04:29.709Z,9.52
2018-07-26T08:06:56.746Z,8.05
2018-07-26T08:09:23.794Z,7.82
2018-07-26T08:11:51.050Z,13.40
2018-07-26T08:14:18.095Z,7.22
2018-07-26T08:16:45.349Z,9.20
2018-07-26T08:19:12.396Z,9.30
2018-07-26T08:21:41.650Z,6.22
2018-07-26T08:24:08.644Z,7.20
2018-07-26T08:26:36.564Z,5.40
2018-07-26T08:29:03.766Z,4.78
2018-07-26T08:31:30.820Z,4.87
2018-07-26T08:33:57.863Z,6.50
2018-07-26T08:36:24.912Z,4.47
2018-07-26T08:38:52.064Z,5.60
2018-07-26T08:41:19.116Z,6.30
2018-07-26T08:43:46.184Z,6.53
2018-07-26T08:46:13.311Z,5.65
2018-07-26T08:48:40.569Z,4.90
2018-07-26T08:51:07.612Z,5.68
2018-07-26T08:53:34.665Z,6.40
2018-07-26T08:56:02.330Z,5.20
2018-07-26T08:58:29.373Z,6.65
2018-07-26T09:00:56.425Z,6.80
2018-07-26T09:03:23.475Z,6.40
2018-07-26T09:05:50.522Z,6.85
2018-07-26T09:08:17.567Z,6.00
2018-07-26T09:10:44.641Z,5.68
2018-07-26T09:13:11.666Z,6.00
2018-07-26T09:15:38.716Z,5.40
2018-07-26T09:18:05.767Z,5.72
2018-07-26T09:20:32.826Z,7.00
2018-07-26T09:22:59.965Z,5.40
2018-07-26T09:25:27.013Z,6.45
2018-07-26T09:27:54.681Z,5.70
2018-07-26T09:30:22.138Z,5.50
2018-07-26T09:32:49.188Z,7.30
2018-07-26T09:35:16.228Z,7.05
2018-07-26T09:37:43.378Z,5.78
2018-07-26T09:40:10.529Z,5.60
2018-07-26T09:42:37.684Z,5.43
2018-07-26T09:45:04.735Z,6.18
2018-07-26T09:47:31.778Z,6.78
2018-07-26T09:49:58.829Z,5.37
2018-07-26T09:52:25.882Z,5.75
2018-07-26T09:54:52.843Z,6.45
2018-07-26T09:57:19.875Z,5.22
2018-07-26T09:59:46.920Z,5.35
2018-07-26T10:02:13.969Z,5.07
2018-07-26T10:04:41.022Z,6.20
2018-07-26T10:07:08.065Z,5.05
2018-07-26T10:09:36.246Z,4.10
2018-07-26T10:12:03.288Z,4.95
2018-07-26T10:14:30.338Z,4.87
2018-07-26T10:16:58.456Z,5.05
2018-07-26T10:19:25.488Z,4.40
2018-07-26T10:21:52.507Z,4.18
2018-07-26T10:24:20.272Z,7.28
2018-07-26T10:26:47.423Z,4.15
2018-07-26T10:29:14.472Z,3.83
2018-07-26T10:31:41.876Z,3.67
2018-07-26T10:34:08.817Z,3.53
2018-07-26T10:36:35.924Z,4.65
2018-07-26T10:39:03.433Z,3.50
2018-07-26T10:41:30.443Z,4.53
2018-07-26T10:43:57.426Z,6.45
2018-07-26T10:46:25.142Z,3.42
2018-07-26T10:48:52.196Z,3.53
2018-07-26T10:51:19.238Z,6.50
2018-07-26T10:53:46.287Z,5.12
2018-07-26T10:56:13.340Z,3.90
2018-07-26T10:58:40.385Z,4.80
2018-07-26T11:01:07.432Z,4.25
2018-07-26T11:03:34.422Z,6.72
2018-07-26T11:06:01.429Z,3.50
2018-07-26T11:08:28.481Z,3.70
2018-07-26T11:10:55.524Z,3.35
2018-07-26T11:13:22.475Z,3.30
2018-07-26T11:15:49.629Z,4.75
2018-07-26T11:18:16.671Z,4.60
2018-07-26T11:20:43.719Z,3.75
2018-07-26T11:23:10.869Z,3.65
2018-07-26T11:25:37.930Z,3.22
2018-07-26T11:28:04.967Z,5.20
2018-07-26T11:30:32.117Z,3.08
2018-07-26T11:32:59.267Z,3.55
2018-07-26T11:35:26.315Z,3.92
2018-07-26T11:37:53.417Z,3.30
2018-07-26T11:40:20.412Z,3.78
2018-07-26T11:42:47.462Z,3.20
2018-07-26T11:45:14.549Z,3.20
2018-07-26T11:47:45.245Z,3.10
2018-07-26T11:50:12.331Z,3.80
2018-07-26T11:52:39.390Z,3.37
2018-07-26T11:55:06.389Z,3.30
2018-07-26T11:57:33.438Z,6.85
2018-07-26T12:00:00.383Z,6.53
2018-07-26T12:05:09.025Z,3.15
2018-07-26T12:07:39.307Z,7.30
2018-07-26T12:10:06.498Z,3.87
2018-07-26T12:12:33.448Z,3.97
2018-07-26T12:15:00.493Z,3.75
2018-07-26T12:17:27.494Z,4.18
2018-07-26T12:19:54.492Z,3.70
2018-07-26T12:22:21.535Z,4.30
2018-07-26T12:24:48.589Z,4.43
2018-07-26T12:27:15.638Z,3.95
2018-07-26T12:29:42.784Z,3.83
2018-07-26T12:32:09.835Z,4.40
2018-07-26T12:34:36.982Z,4.60
2018-07-26T12:37:06.021Z,4.28
2018-07-26T12:39:33.029Z,7.55
2018-07-26T12:42:00.381Z,6.50
2018-07-26T12:44:28.254Z,8.00
2018-07-26T12:46:55.603Z,6.15
2018-07-26T12:49:22.652Z,7.75
2018-07-26T12:51:49.598Z,4.03
2018-07-26T12:54:16.647Z,4.35
2018-07-26T12:56:44.104Z,4.03
2018-07-26T12:59:11.358Z,3.37
2018-07-26T13:01:38.443Z,3.80
2018-07-26T13:04:06.581Z,4.00
2018-07-26T13:06:33.630Z,4.10
2018-07-26T13:09:00.684Z,3.97
2018-07-26T13:11:27.624Z,4.65
2018-07-26T13:13:54.677Z,5.93
2018-07-26T13:16:21.720Z,4.32
2018-07-26T13:18:48.871Z,8.10
2018-07-26T13:21:15.830Z,4.05
2018-07-26T13:23:42.973Z,4.35
2018-07-26T13:26:10.026Z,3.92
2018-07-26T13:28:37.066Z,4.75
2018-07-26T13:31:04.119Z,6.45
2018-07-26T13:33:31.163Z,3.60
2018-07-26T13:35:58.312Z,3.75
2018-07-26T13:38:25.264Z,4.70
2018-07-26T13:40:52.307Z,4.35
2018-07-26T13:43:19.355Z,7.30
2018-07-26T13:45:46.410Z,6.68
2018-07-26T13:48:13.454Z,11.77
2018-07-26T13:50:41.633Z,4.75
2018-07-26T13:53:08.690Z,4.22
2018-07-26T13:55:35.724Z,3.70
2018-07-26T13:58:03.086Z,4.93
2018-07-26T14:00:30.129Z,4.15
2018-07-26T14:02:57.178Z,3.90
2018-07-26T14:05:25.154Z,10.38
2018-07-26T14:07:52.197Z,3.65
2018-07-26T14:10:19.244Z,9.43
2018-07-26T14:12:46.607Z,3.20
2018-07-26T14:15:13.802Z,4.70
2018-07-26T14:17:40.800Z,5.43
2018-07-26T14:20:08.259Z,5.78
2018-07-26T14:22:35.308Z,3.92
2018-07-26T14:25:02.362Z,7.28
2018-07-26T14:27:29.403Z,6.28
2018-07-26T14:29:56.452Z,3.78
2018-07-26T14:32:23.506Z,4.28
2018-07-26T14:34:50.548Z,4.10
2018-07-26T14:37:17.597Z,10.35
2018-07-26T14:39:44.650Z,4.07
2018-07-26T14:42:11.593Z,5.20
2018-07-26T14:44:38.647Z,4.82
2018-07-26T14:47:05.690Z,5.10
2018-07-26T14:49:32.738Z,5.87
2018-07-26T14:52:02.200Z,7.18
2018-07-26T14:54:29.338Z,7.03
2018-07-26T14:56:56.342Z,7.75
2018-07-26T14:59:23.398Z,5.10
2018-07-26T15:02:01.298Z,7.25
2018-07-26T15:04:29.618Z,6.68
2018-07-26T15:10:01.767Z,6.10
2018-07-26T15:12:29.121Z,5.68
2018-07-26T15:14:57.194Z,5.15
2018-07-26T15:17:26.276Z,4.93
2018-07-26T15:26:01.982Z,7.40
2018-07-26T15:28:28.933Z,8.45
2018-07-26T15:31:04.166Z,6.68
2018-07-26T15:33:31.221Z,7.28
2018-07-26T15:36:27.554Z,5.75
2018-07-26T15:39:24.076Z,5.82
2018-07-26T15:44:47.214Z,6.35
2018-07-26T15:47:32.686Z,4.87
2018-07-26T16:07:32.385Z,5.40
2018-07-26T16:10:09.982Z,4.87
2018-07-26T16:12:38.358Z,4.93
2018-07-26T16:15:06.949Z,4.78
2018-07-26T16:17:34.064Z,8.27
2018-07-26T16:20:01.042Z,5.55
2018-07-26T16:22:28.112Z,5.20
2018-07-26T16:24:55.144Z,6.37
2018-07-26T16:27:22.514Z,8.38
2018-07-26T16:29:49.952Z,5.80
2018-07-26T16:32:17.010Z,5.65
2018-07-26T16:34:44.157Z,6.82
2018-07-26T16:37:11.404Z,4.97
2018-07-26T16:39:38.458Z,5.97
2018-07-26T16:42:05.610Z,6.37
2018-07-26T16:44:32.857Z,5.15
2018-07-26T16:49:41.811Z,8.50
2018-07-26T16:52:08.893Z,5.97
2018-07-26T16:54:35.836Z,4.78
2018-07-26T16:57:03.718Z,8.65
2018-07-26T16:59:30.817Z,5.28
2018-07-26T17:01:58.833Z,6.00
2018-07-26T17:04:25.834Z,5.18
2018-07-26T17:06:52.883Z,5.37
2018-07-26T17:09:19.939Z,5.03
2018-07-26T17:11:47.087Z,7.10
2018-07-26T17:14:15.355Z,8.07
2018-07-26T17:16:42.819Z,9.90
2018-07-26T17:19:09.928Z,6.97
2018-07-26T17:21:37.631Z,9.80
2018-07-26T17:24:17.481Z,4.65
2018-07-26T17:26:44.531Z,5.10
2018-07-26T17:29:11.690Z,6.50
2018-07-26T17:31:39.856Z,10.07
2018-07-26T17:34:06.904Z,5.00
2018-07-26T17:36:33.959Z,4.82
2018-07-26T17:39:01.417Z,4.90
2018-07-26T17:41:29.032Z,5.07
2018-07-26T17:43:56.027Z,5.30
2018-07-26T17:46:23.177Z,5.68
2018-07-26T17:48:50.223Z,4.93
2018-07-26T17:51:17.677Z,5.43
2018-07-26T17:53:44.725Z,4.90
2018-07-26T17:56:11.881Z,4.95
2018-07-26T17:58:38.931Z,4.65
2018-07-26T18:01:06.282Z,6.75
2018-07-26T18:03:33.740Z,7.87
2018-07-26T18:06:02.048Z,6.53
2018-07-26T18:08:29.117Z,6.57
2018-07-26T18:10:56.116Z,5.62
2018-07-26T18:13:23.167Z,5.50
2018-07-26T18:15:58.102Z,5.60
2018-07-26T18:18:25.661Z,5.12
2018-07-26T18:20:52.816Z,5.50
2018-07-26T18:23:20.314Z,5.20
2018-07-26T18:25:47.316Z,7.00
2018-07-26T18:28:15.240Z,6.53
2018-07-26T18:30:42.273Z,6.85
2018-07-26T18:33:10.303Z,5.25
2018-07-26T18:35:37.354Z,6.50
2018-07-26T18:38:04.745Z,5.30
2018-07-26T18:40:31.864Z,5.10
2018-07-26T18:42:58.907Z,5.53
2018-07-26T18:45:26.166Z,4.93
2018-07-26T18:48:13.303Z,5.62
2018-07-26T18:50:40.648Z,5.87
2018-07-26T18:53:08.450Z,6.60
2018-07-26T18:55:37.041Z,5.97
2018-07-26T18:58:05.474Z,9.80
2018-07-26T19:00:32.798Z,6.93
2018-07-26T19:03:08.873Z,5.82
2018-07-26T19:05:40.560Z,5.53
2018-07-26T19:08:07.887Z,10.93
2018-07-26T19:10:39.226Z,5.28
2018-07-26T19:13:07.559Z,5.37
2018-07-26T19:15:36.247Z,4.95
2018-07-26T19:18:04.779Z,5.72
2018-07-26T19:20:35.312Z,5.72
2018-07-26T19:23:04.411Z,5.28
2018-07-26T19:25:31.662Z,5.82
2018-07-26T19:27:59.569Z,5.87
2018-07-26T19:30:27.425Z,5.60
2018-07-26T19:32:58.045Z,8.15
2018-07-26T19:35:25.292Z,5.85
2018-07-26T19:37:52.331Z,6.35
2018-07-26T19:40:19.701Z,5.37
2018-07-26T19:42:46.763Z,6.32
2018-07-26T19:45:13.783Z,5.55
2018-07-26T19:47:40.730Z,6.00
2018-07-26T19:50:10.286Z,7.60
2018-07-26T19:52:38.665Z,6.20
2018-07-26T19:55:05.869Z,6.55
2018-07-26T19:57:33.203Z,6.70
2018-07-26T20:00:01.137Z,6.68
2018-07-26T20:02:29.580Z,5.20
2018-07-26T20:04:56.623Z,6.25
2018-07-26T20:07:23.671Z,7.05
2018-07-26T20:09:52.608Z,11.25
2018-07-26T20:12:19.960Z,5.22
2018-07-26T20:14:47.221Z,5.05
2018-07-26T20:17:16.373Z,6.68
2018-07-26T20:19:44.846Z,6.60
2018-07-26T20:22:13.793Z,6.55
2018-07-26T20:24:41.102Z,5.43
2018-07-26T20:27:08.398Z,10.73
2018-07-26T20:29:36.668Z,7.50
2018-07-26T20:32:03.624Z,6.85
2018-07-26T20:34:30.754Z,6.65
2018-07-26T20:36:59.966Z,12.23
2018-07-26T20:39:28.142Z,6.75
2018-07-26T20:41:56.211Z,6.22
2018-07-26T20:44:23.435Z,6.57
2018-07-26T20:46:50.482Z,6.28
2018-07-26T20:49:17.527Z,6.62
2018-07-26T20:51:44.581Z,6.00
2018-07-26T20:54:11.567Z,6.95
2018-07-26T20:56:38.576Z,6.40
2018-07-26T20:59:05.618Z,6.85
2018-07-26T21:01:32.667Z,8.60
2018-07-26T21:03:59.721Z,7.53
2018-07-26T21:06:26.764Z,9.63
2018-07-26T21:08:53.917Z,10.52
2018-07-26T21:11:22.030Z,9.45
2018-07-26T21:13:49.346Z,15.35
2018-07-26T21:16:16.598Z,15.45
2018-07-26T21:18:43.647Z,13.62
2018-07-26T21:21:10.701Z,11.38
2018-07-26T21:23:37.743Z,10.80
2018-07-26T21:26:04.793Z,10.10
2018-07-26T21:28:31.944Z,9.85
2018-07-26T21:30:59.401Z,9.65
2018-07-26T21:33:26.501Z,10.10
2018-07-26T21:35:54.939Z,10.02
2018-07-26T21:38:22.083Z,12.48
2018-07-26T21:40:50.098Z,14.27
2018-07-26T21:43:17.211Z,12.65
2018-07-26T21:45:44.253Z,10.15
2018-07-26T21:48:11.303Z,11.98
2018-07-26T21:50:38.356Z,9.20
2018-07-26T21:53:05.403Z,10.15
2018-07-26T21:55:32.469Z,8.63
2018-07-26T21:57:59.504Z,9.95
2018-07-26T22:00:29.055Z,9.27
2018-07-26T22:02:56.102Z,8.52
2018-07-26T22:05:23.252Z,8.63
2018-07-26T22:07:50.257Z,11.52
2018-07-26T22:10:18.042Z,8.55
2018-07-26T22:12:45.793Z,9.55
2018-07-26T22:15:13.096Z,7.95
2018-07-26T22:17:40.091Z,10.40
2018-07-26T22:20:07.134Z,8.60
2018-07-26T22:22:34.490Z,9.98
2018-07-26T22:25:01.435Z,8.20
2018-07-26T22:27:28.484Z,8.82
2018-07-26T22:29:57.580Z,10.60
2018-07-26T22:32:24.632Z,9.63
2018-07-26T22:34:51.683Z,7.78
2018-07-26T22:37:19.034Z,7.65
2018-07-26T22:39:46.081Z,10.02
2018-07-26T22:42:13.136Z,7.72
2018-07-26T22:44:40.077Z,8.57
2018-07-26T22:47:07.227Z,12.15
2018-07-26T22:49:34.282Z,7.25
2018-07-26T22:52:02.246Z,8.90
2018-07-26T22:54:29.337Z,7.72
2018-07-26T22:56:56.349Z,9.32
2018-07-26T22:59:23.392Z,8.73
2018-07-26T23:01:50.379Z,7.18
2018-07-26T23:04:17.387Z,6.87
2018-07-26T23:06:44.435Z,7.40
2018-07-26T23:09:11.383Z,8.20
2018-07-26T23:11:38.432Z,8.90
2018-07-26T23:14:05.425Z,7.22
2018-07-26T23:16:32.425Z,9.32
2018-07-26T23:18:59.480Z,13.25
2018-07-26T23:21:26.522Z,8.13
2018-07-26T23:23:53.571Z,11.98
2018-07-26T23:26:20.625Z,10.07
2018-07-26T23:28:47.669Z,9.73
2018-07-26T23:31:14.717Z,9.15
2018-07-26T23:33:41.771Z,8.90
2018-07-26T23:36:08.814Z,10.35
2018-07-26T23:38:35.862Z,12.98
2018-07-26T23:41:02.919Z,14.00
2018-07-26T23:43:29.960Z,11.23
2018-07-26T23:45:57.008Z,10.50
2018-07-26T23:48:24.061Z,11.02
2018-07-26T23:50:51.108Z,11.15
2018-07-26T23:53:19.329Z,9.57
2018-07-26T23:55:46.314Z,9.43
2018-07-26T23:58:13.588Z,10.13
